Muskogee, Oklahoma
Current Conditions -  °F | °C
As of 3:53 AM on Wednesday 26 Nov 2014 (Local Time) from KMKO Reporting Station
Clear Clear  
Wind Chill: 28°   Ceiling: Unl
Heat Index: 36°   Visibility: 10mi
Dew Point: 26°   Wind: 10mph
Humidity: 67%   Direction: 160°SSE
Pressure: 29.99"   Gusts: NA
Location:  35.75°N, 95.37°W
Report Text: KMKO 260953Z AUTO 16009KT 10SM CLR 02/M03 A2999 RMK AO2 SLP158 T00221033
Loading
Personal Weather Stations






























Interactive Weather Map New forecast layout! Learn more

10-Day Weather Forecast

Advertisements
Track Severe Weather on mobile